METAR Reports From Nearby Airports

 

KLUD - Decatur, Texas, USA
Distance from Wildwood: ESE 5mi, 8km
Updated: Oct 18, 2019 6:55am
Clear
Clear
 Wind from SE
Wind: SE 6 mph , 9 km/h
Temperature: 50°F , 10°C
Wind Chill: 48°F , 9°C
Dew Point: 46°F , 8°C
Humidity: 88%
Barometer: 29.89 inHg , 1012.2 hPa
Clouds: Clear
Visibility: 10 miles , 16 km
2019/10/18 11:55 KLUD 181155Z AUTO 13005KT 10SM CLR 10/08 A2989 RMK AO2 T01040075 10127 20104
KXBP - Bridgeport, Texas, USA
Distance from Wildwood: WSW 11mi, 18km
Updated: Oct 18, 2019 6:55am
Clear
Clear
 Wind from calm
Wind: Calm
Temperature: 43°F , 6°C
Dew Point: 43°F , 6°C
Humidity: 100%
Barometer: 29.91 inHg , 1012.9 hPa
Clouds: Clear
Visibility: 10 miles , 16 km
2019/10/18 11:55 KXBP 181155Z AUTO 00000KT 10SM CLR 06/06 A2991 RMK AO2 T00620062 10126 20055
 
K0F2 - Bowie, Texas, USA
Distance from Wildwood: NNW 24mi, 39km
Updated: Oct 18, 2019 6:55am
Clear
Clear
 Wind from calm
Wind: Calm
Temperature: 46°F , 8°C
Dew Point: 45°F , 7°C
Humidity: 93%
Barometer: 29.89 inHg , 1012.2 hPa
Clouds: Clear
Visibility: 10 miles , 16 km
2019/10/18 11:55 K0F2 181155Z AUTO 00000KT 10SM CLR 08/07 A2989 RMK AO2 T00790066 10105 20072
KDTO - Denton, Texas, USA
Distance from Wildwood: E 27mi, 44km
Updated: Oct 18, 2019 6:53am
Clear
Clear
 Wind from calm
Wind: Calm
Temperature: 48°F , 9°C
Dew Point: 45°F , 7°C
Humidity: 87%
Barometer: 29.91 inHg , 1012.9 hPa
Clouds: Clear
Visibility: 10 miles , 16 km
2019/10/18 11:53 KDTO 181153Z 00000KT 10SM CLR 09/07 A2991 RMK AO2 SLP124 T00940072 10128 20089 51002
 
KAFW - Ft Worth/Allianc, Texas, USA
Distance from Wildwood: SE 29mi, 46km
Updated: Oct 18, 2019 6:53am
Few Clouds
Few Clouds
 Wind from S
Wind: S 6 mph , 9 km/h
Temperature: 52°F , 11°C
Dew Point: 45°F , 7°C
Humidity: 77%
Barometer: 29.90 inHg , 1012.5 hPa
Clouds: Few Clouds
Visibility: 10 miles , 16 km
Cloud details: Few Clouds 30000 ft
2019/10/18 11:53 KAFW 181153Z 17005KT 10SM FEW300 11/07 A2990 RMK AO2 SLP121 T01060072 10133 20106 51003
KFTW - Fort Worth, Texas, USA
Distance from Wildwood: SSE 34mi, 55km
Updated: Oct 18, 2019 6:53am
Clear
Clear
 Wind from S
Wind: S 3 mph , 6 km/h
Temperature: 52°F , 11°C
Dew Point: 46°F , 8°C
Humidity: 82%
Barometer: 29.90 inHg , 1012.5 hPa
Clouds: Clear
Visibility: 10 miles , 16 km
2019/10/18 11:53 KFTW 181153Z 18003KT 10SM CLR 11/08 A2990 RMK AO2 SLP122 T01060083 10128 20100 53002
 
KNFW - Fort Worth Nas, Texas, USA
Distance from Wildwood: SSE 36mi, 58km
Updated: Oct 18, 2019 6:52am
Clear
Clear
 Wind from calm
Wind: Calm
Temperature: 52°F , 11°C
Dew Point: 46°F , 8°C
Humidity: 82%
Barometer: 29.91 inHg , 1012.9 hPa
Clouds: Clear
Visibility: 10 miles , 16 km
2019/10/18 11:52 KNFW 181152Z 00000KT 10SM CLR 11/08 A2991 RMK AO2 SLP113 T01110078 10139 20111 53002 CHINO N VISNO N $
KGLE - Gainesville, Texas, USA
Distance from Wildwood: NE 38mi, 61km
Updated: Oct 18, 2019 6:55am
Clear
Clear
 Wind from calm
Wind: Calm
Temperature: 48°F , 9°C
Dew Point: 46°F , 8°C
Humidity: 94%
Barometer: 29.92 inHg , 1013.2 hPa
Clouds: Clear
Visibility: 10 miles , 16 km
2019/10/18 11:55 KGLE 181155Z AUTO 00000KT 10SM CLR 09/08 A2992 RMK AO2 T00880083 10100 20081
 
KMWL - Mineral Wells, Texas, USA
Distance from Wildwood: SW 41mi, 65km
Updated: Oct 18, 2019 6:53am
Clear
Clear
 Wind from SE
Wind: SE 9 mph , 15 km/h
Temperature: 46°F , 8°C
Wind Chill: 41°F , 5°C
Dew Point: 45°F , 7°C
Humidity: 93%
Barometer: 29.87 inHg , 1011.5 hPa
Clouds: Clear
Visibility: 10 miles , 16 km
2019/10/18 11:53 KMWL 181153Z AUTO 14008KT 10SM CLR 08/07 A2987 RMK AO2 SLP110 T00780067 10100 20078 58003
KDFW - Dallas/Ft Worth, Texas, USA
Distance from Wildwood: ESE 45mi, 73km
Updated: Oct 18, 2019 6:53am
Few Clouds
Few Clouds
 Wind from S
Wind: S 5 mph , 7 km/h
Temperature: 50°F , 10°C
Wind Chill: 48°F , 9°C
Dew Point: 46°F , 8°C
Humidity: 88%
Barometer: 29.89 inHg , 1012.2 hPa
Clouds: Few Clouds
Visibility: 10 miles , 16 km
Cloud details: Few Clouds 30000 ft
2019/10/18 11:53 KDFW 181153Z 18004KT 10SM FEW300 10/08 A2989 RMK AO2 SLP119 T01000078 10133 20100 55002 $